Time;durP1;ratioP1;P1;durP2;ratioP2;P2;SDS_P1;SDS_P2;PMS_P1;PMS_P2;Temp;Humidity;BMP_temperature;BMP_pressure;BME280_temperature;BME280_humidity;BME280_pressure;Samples;Min_cycle;Max_cycle;Signal;HPM_P1;HPM_P2
2022/04/06 00:01:59;;;;;;;35.40;9.43;;;7.90;99.90;;;;;;5032053;28;20098;-86
2022/04/06 00:04:25;;;;;;;29.08;8.98;;;7.60;99.90;;;;;;5031998;28;20531;-86
2022/04/06 00:07:00;;;;;;;30.58;10.23;;;7.90;99.90;;;;;;5031617;28;20187;-86
2022/04/06 00:09:26;;;;;;;26.13;10.40;;;8.90;99.90;;;;;;5030660;28;20037;-86
2022/04/06 00:11:52;;;;;;;34.17;9.48;;;8.90;99.90;;;;;;5031390;28;20044;-86
2022/04/06 00:14:17;;;;;;;27.00;10.00;;;8.30;99.90;;;;;;5030321;28;20044;-86
2022/04/06 00:16:43;;;;;;;30.35;10.55;;;8.00;99.90;;;;;;5031979;28;20052;-86
2022/04/06 00:19:20;;;;;;;32.00;11.15;;;8.60;99.90;;;;;;5031595;28;20152;-86
2022/04/06 00:21:45;;;;;;;37.08;12.00;;;8.00;99.90;;;;;;5031680;28;20041;-86
2022/04/06 00:24:12;;;;;;;33.03;12.70;;;8.00;99.90;;;;;;5030706;28;20037;-85
2022/04/06 00:26:47;;;;;;;30.92;12.18;;;8.80;99.90;;;;;;5031693;28;20453;-85
2022/04/06 00:29:13;;;;;;;35.65;13.32;;;8.00;99.90;;;;;;5029784;28;20033;-85
2022/04/06 00:31:38;;;;;;;35.15;12.25;;;8.80;99.90;;;;;;5031466;28;20390;-86
2022/04/06 00:34:04;;;;;;;39.53;13.65;;;8.00;99.90;;;;;;5030775;28;20068;-86
2022/04/06 00:36:30;;;;;;;43.80;15.00;;;8.30;99.90;;;;;;5031122;28;20044;-86
2022/04/06 00:39:05;;;;;;;47.58;14.10;;;8.00;99.90;;;;;;5031119;28;20033;-86
2022/04/06 00:41:30;;;;;;;36.97;14.25;;;8.00;99.90;;;;;;5031077;28;20041;-86
2022/04/06 00:44:23;;;;;;;35.38;15.02;;;8.80;99.90;;;;;;5047430;28;20098;-86
2022/04/06 00:46:48;;;;;;;38.15;15.10;;;8.00;99.90;;;;;;5047553;28;20136;-86
2022/04/06 00:49:14;;;;;;;36.22;14.82;;;7.20;99.90;;;;;;5030515;28;20156;-86
2022/04/06 00:51:43;;;;;;;35.78;14.90;;;8.00;99.90;;;;;;5031408;28;20040;-87
2022/04/06 00:54:35;;;;;;;43.42;14.10;;;8.30;99.90;;;;;;5030455;28;20048;-86
2022/04/06 00:57:01;;;;;;;41.83;14.70;;;8.00;99.90;;;;;;5029373;28;20106;-84
2022/04/06 00:59:35;;;;;;;35.17;14.23;;;8.60;99.90;;;;;;5029188;28;20438;-84
2022/04/06 01:02:00;;;;;;;38.40;14.25;;;8.80;99.90;;;;;;5030480;28;20131;-85
2022/04/06 01:04:27;;;;;;;32.63;13.85;;;8.00;99.90;;;;;;5029674;28;20124;-85
2022/04/06 01:06:53;;;;;;;42.10;15.23;;;8.20;99.90;;;;;;5031397;28;20540;-85
2022/04/06 01:09:21;;;;;;;44.85;15.00;;;8.30;99.90;;;;;;5029537;28;20084;-86
2022/04/06 01:11:52;;;;;;;39.67;14.07;;;8.90;99.90;;;;;;5031368;28;20037;-85
2022/04/06 01:14:19;;;;;;;32.95;14.63;;;8.60;99.90;;;;;;5028853;28;20053;-86
2022/04/06 01:17:10;;;;;;;38.13;15.30;;;9.00;99.90;;;;;;5030505;28;20107;-86
2022/04/06 01:19:39;;;;;;;44.17;14.18;;;8.10;99.90;;;;;;5029939;28;20048;-85
2022/04/06 01:22:09;;;;;;;41.15;14.27;;;8.10;99.90;;;;;;5030251;28;20132;-86
2022/04/06 01:24:38;;;;;;;37.00;14.45;;;8.10;99.90;;;;;;5046606;28;20049;-85
2022/04/06 01:27:11;;;;;;;44.72;14.57;;;8.70;99.90;;;;;;5030740;28;20547;-86
2022/04/06 01:29:37;;;;;;;37.28;12.75;;;9.10;99.90;;;;;;5029448;28;20098;-86
2022/04/06 01:32:24;;;;;;;39.33;13.52;;;8.40;99.90;;;;;;5030056;28;20098;-86
2022/04/06 01:34:53;;;;;;;40.40;12.52;;;8.30;99.90;;;;;;5047589;28;20040;-88
2022/04/06 01:37:19;;;;;;;35.60;13.32;;;8.80;99.90;;;;;;5030243;28;20053;-88
2022/04/06 01:39:46;;;;;;;36.30;14.00;;;8.80;99.90;;;;;;5030828;28;20045;-87
2022/04/06 01:42:24;;;;;;;32.35;13.27;;;8.50;99.90;;;;;;5030796;28;20145;-89
2022/04/06 01:44:50;;;;;;;31.55;12.90;;;9.10;99.90;;;;;;5046539;28;20045;-88
2022/04/06 01:47:17;;;;;;;34.97;13.15;;;8.40;99.90;;;;;;5029311;28;20497;-88
2022/04/06 01:52:29;;;;;;;37.25;12.85;;;7.50;99.90;;;;;;5047228;28;20064;-88
2022/04/06 01:55:00;;;;;;;36.00;12.90;;;8.10;99.90;;;;;;5030817;28;20084;-88
2022/04/06 01:57:37;;;;;;;29.65;11.50;;;8.60;99.90;;;;;;5031050;28;20045;-88
2022/04/06 02:00:09;;;;;;;38.53;12.60;;;8.10;99.90;;;;;;5030012;28;20476;-87
2022/04/06 02:02:37;;;;;;;31.65;11.82;;;8.10;99.90;;;;;;5031708;28;20076;-88
2022/04/06 02:05:16;;;;;;;35.60;11.02;;;9.10;99.90;;;;;;5030824;28;20037;-88
2022/04/06 02:07:42;;;;;;;33.13;11.65;;;8.70;99.90;;;;;;5031189;28;20428;-90
2022/04/06 02:10:09;;;;;;;31.80;11.43;;;8.10;99.90;;;;;;5030654;28;20649;-88
2022/04/06 02:12:35;;;;;;;30.23;11.05;;;8.70;99.90;;;;;;5031271;28;20037;-88
2022/04/06 02:15:12;;;;;;;24.55;9.63;;;8.90;99.90;;;;;;5029758;28;20053;-88
2022/04/06 02:17:38;;;;;;;27.17;10.05;;;8.20;99.90;;;;;;5030911;28;20098;-88
2022/04/06 02:20:05;;;;;;;28.63;9.88;;;9.20;99.90;;;;;;5029691;28;20076;-88
2022/04/06 02:22:30;;;;;;;27.25;9.25;;;8.20;99.90;;;;;;5031070;28;20053;-87
2022/04/06 02:25:09;;;;;;;28.58;9.45;;;8.40;99.90;;;;;;5029952;28;20538;-87
2022/04/06 02:27:44;;;;;;;32.13;9.38;;;8.20;99.90;;;;;;5030555;28;20041;-86
2022/04/06 02:30:10;;;;;;;29.45;9.27;;;8.70;99.90;;;;;;5028781;28;20051;-87
2022/04/06 02:32:46;;;;;;;38.17;9.38;;;8.20;99.90;;;;;;5030420;28;20084;-88
2022/04/06 02:35:12;;;;;;;23.02;7.80;;;8.50;99.90;;;;;;5032943;28;20048;-87
2022/04/06 02:37:41;;;;;;;32.78;8.52;;;8.40;99.90;;;;;;5034287;28;20045;-88
2022/04/06 02:40:20;;;;;;;29.90;8.25;;;9.00;99.90;;;;;;5034219;28;20041;-88
2022/04/06 02:42:46;;;;;;;21.85;7.07;;;8.20;99.90;;;;;;5033841;28;20049;-88
2022/04/06 02:45:12;;;;;;;24.70;7.25;;;9.00;99.90;;;;;;5032290;28;20052;-88
2022/04/06 02:47:38;;;;;;;22.38;6.78;;;9.10;99.90;;;;;;5033815;28;20048;-88
2022/04/06 02:50:06;;;;;;;17.10;6.75;;;9.10;99.90;;;;;;5033933;28;20045;-87
2022/04/06 02:52:37;;;;;;;15.63;5.95;;;8.20;99.90;;;;;;5033144;28;20057;-87
2022/04/06 02:55:03;;;;;;;15.18;5.95;;;8.20;99.90;;;;;;5032296;28;20047;-86
2022/04/06 02:57:29;;;;;;;16.05;5.35;;;8.20;99.90;;;;;;5033206;28;20045;-86
2022/04/06 02:59:54;;;;;;;18.60;5.20;;;8.60;99.90;;;;;;5032477;28;20439;-86
2022/04/06 03:02:20;;;;;;;13.73;4.95;;;7.40;99.90;;;;;;5031868;28;20041;-85
2022/04/06 03:04:56;;;;;;;16.67;5.15;;;8.00;99.90;;;;;;5032936;28;20045;-86
2022/04/06 03:07:22;;;;;;;15.80;4.88;;;9.10;99.90;;;;;;5032709;28;20116;-86
2022/04/06 03:09:47;;;;;;;13.32;4.25;;;8.20;99.90;;;;;;5032490;28;20500;-86
2022/04/06 03:12:13;;;;;;;12.40;4.60;;;8.80;99.90;;;;;;5032599;28;20040;-86
2022/04/06 03:14:39;;;;;;;21.35;4.50;;;9.10;99.90;;;;;;5032355;28;20126;-86
2022/04/06 03:17:16;;;;;;;13.13;4.22;;;7.60;99.90;;;;;;5032700;28;20037;-86
2022/04/06 03:19:42;;;;;;;15.55;4.28;;;9.10;99.90;;;;;;5032898;28;20567;-87
2022/04/06 03:22:08;;;;;;;14.13;4.45;;;8.30;99.90;;;;;;5032846;28;20101;-87
2022/04/06 03:24:34;;;;;;;12.27;3.38;;;8.20;99.90;;;;;;5032640;28;20423;-87
2022/04/06 03:27:14;;;;;;;16.63;4.28;;;8.80;99.90;;;;;;5049309;28;20139;-86
2022/04/06 03:29:40;;;;;;;13.98;3.63;;;8.20;99.90;;;;;;5032687;28;20053;-87
2022/04/06 03:32:07;;;;;;;16.67;3.83;;;8.80;99.90;;;;;;5031887;28;20067;-87
2022/04/06 03:34:33;;;;;;;12.85;4.00;;;8.20;99.90;;;;;;5033468;28;20457;-87
2022/04/06 03:37:11;;;;;;;13.30;3.95;;;7.60;99.90;;;;;;5032161;28;20192;-86
2022/04/06 03:39:36;;;;;;;19.13;3.92;;;8.90;99.90;;;;;;5039250;28;20409;-86
2022/04/06 03:42:02;;;;;;;19.05;4.00;;;8.40;99.90;;;;;;5052433;28;20131;-87
2022/04/06 03:44:28;;;;;;;9.25;3.35;;;8.10;99.90;;;;;;5051360;28;20040;-87
2022/04/06 03:46:56;;;;;;;14.70;4.22;;;8.10;99.90;;;;;;5055290;28;20068;-88
2022/04/06 03:49:31;;;;;;;10.27;3.78;;;9.00;99.90;;;;;;5073022;28;20518;-87
2022/04/06 03:51:57;;;;;;;16.48;4.78;;;8.60;99.90;;;;;;5055298;28;20036;-86
2022/04/06 03:54:23;;;;;;;17.48;4.28;;;9.00;99.90;;;;;;5055361;28;20098;-87
2022/04/06 03:56:48;;;;;;;17.30;4.82;;;8.90;99.90;;;;;;5055397;28;20086;-87
2022/04/06 03:59:29;;;;;;;15.18;4.60;;;8.70;99.90;;;;;;5054768;28;20090;-88
2022/04/06 04:01:56;;;;;;;21.95;4.53;;;8.00;99.90;;;;;;5056382;28;20047;-87
2022/04/06 04:04:21;;;;;;;18.73;5.45;;;8.30;99.90;;;;;;5055439;28;20126;-87
2022/04/06 04:06:56;;;;;;;18.60;5.45;;;8.50;99.90;;;;;;5054769;28;20464;-86
2022/04/06 04:09:22;;;;;;;17.83;5.30;;;8.40;99.90;;;;;;5054805;28;20044;-86
2022/04/06 04:11:47;;;;;;;13.65;5.50;;;8.70;99.90;;;;;;5055953;28;20442;-86
2022/04/06 04:14:14;;;;;;;27.88;5.65;;;8.10;99.90;;;;;;5053599;28;20040;-86
2022/04/06 04:16:39;;;;;;;26.23;6.20;;;8.30;99.90;;;;;;5071956;28;20377;-87
2022/04/06 04:19:17;;;;;;;19.95;6.47;;;8.20;99.90;;;;;;5041256;28;20051;-87
2022/04/06 04:21:43;;;;;;;25.08;7.35;;;7.40;99.90;;;;;;5035928;28;20160;-87
2022/04/06 04:24:09;;;;;;;20.98;7.50;;;8.70;99.90;;;;;;5035120;28;20403;-86
2022/04/06 04:26:49;;;;;;;27.75;8.18;;;8.50;99.90;;;;;;5045309;28;20040;-86
2022/04/06 04:29:16;;;;;;;30.35;9.38;;;8.50;99.90;;;;;;5070077;28;20154;-86
2022/04/06 04:31:42;;;;;;;26.35;8.85;;;8.10;99.90;;;;;;5055013;28;20570;-86
2022/04/06 04:34:08;;;;;;;29.63;8.95;;;8.90;99.90;;;;;;5069975;28;20083;-86
2022/04/06 04:36:48;;;;;;;28.98;9.73;;;8.00;99.90;;;;;;5055120;28;20083;-86
2022/04/06 04:39:14;;;;;;;26.15;10.60;;;8.00;99.90;;;;;;5070948;28;20051;-86
2022/04/06 04:41:40;;;;;;;32.65;10.80;;;8.90;99.90;;;;;;5071016;28;20469;-86
2022/04/06 04:44:06;;;;;;;33.85;9.30;;;7.50;99.90;;;;;;5053367;28;20446;-87
2022/04/06 04:46:38;;;;;;;31.17;9.40;;;8.00;99.90;;;;;;5055552;28;20159;-87
2022/04/06 04:49:03;;;;;;;26.10;9.88;;;8.30;99.90;;;;;;5050712;28;20500;-87
2022/04/06 04:51:29;;;;;;;28.55;9.05;;;8.70;99.90;;;;;;5034755;28;20046;-87
2022/04/06 04:53:57;;;;;;;33.53;10.63;;;8.00;99.90;;;;;;5034600;28;20052;-87
2022/04/06 04:56:24;;;;;;;25.90;9.63;;;8.70;99.90;;;;;;5050273;28;20033;-87
2022/04/06 04:59:00;;;;;;;25.90;9.20;;;8.50;99.90;;;;;;5033813;28;20110;-87
2022/04/06 05:01:26;;;;;;;32.35;10.05;;;8.00;99.90;;;;;;5034414;28;20048;-87
2022/04/06 05:03:52;;;;;;;34.88;10.38;;;8.10;99.90;;;;;;5050310;28;20045;-87
2022/04/06 05:06:18;;;;;;;33.75;9.75;;;8.10;99.90;;;;;;5050777;28;20048;-87
2022/04/06 05:08:44;;;;;;;24.17;9.15;;;8.60;99.90;;;;;;5033668;28;20076;-87
2022/04/06 05:11:21;;;;;;;25.52;9.07;;;8.50;99.90;;;;;;5050813;28;20040;-86
2022/04/06 05:13:47;;;;;;;26.40;8.93;;;7.20;99.90;;;;;;5033353;28;20051;-87
2022/04/06 05:16:13;;;;;;;28.67;8.73;;;8.70;99.90;;;;;;5033181;28;20130;-86
2022/04/06 05:18:38;;;;;;;27.30;8.50;;;8.00;99.90;;;;;;5034383;28;20044;-86
2022/04/06 05:21:16;;;;;;;25.13;7.93;;;8.10;99.90;;;;;;5033408;28;20137;-86
2022/04/06 05:23:42;;;;;;;29.45;9.10;;;9.00;99.90;;;;;;5033475;28;20052;-85
2022/04/06 05:26:07;;;;;;;28.27;7.95;;;8.10;99.90;;;;;;5033400;28;20052;-85
2022/04/06 05:28:33;;;;;;;23.55;8.55;;;8.40;99.90;;;;;;5034158;28;20044;-84
2022/04/06 05:31:12;;;;;;;21.45;7.82;;;8.50;99.90;;;;;;5032588;28;20059;-85
2022/04/06 05:33:38;;;;;;;33.53;9.25;;;8.00;99.90;;;;;;5050081;28;20056;-85
2022/04/06 05:36:04;;;;;;;29.83;8.05;;;8.00;99.90;;;;;;5033552;28;20567;-84
2022/04/06 05:38:34;;;;;;;29.83;8.00;;;8.00;99.90;;;;;;5049339;28;20087;-85
2022/04/06 05:41:07;;;;;;;25.40;8.68;;;8.70;99.90;;;;;;5031112;28;20095;-84
2022/04/06 05:43:33;;;;;;;28.90;8.10;;;8.00;99.90;;;;;;5013258;28;20048;-85
2022/04/06 05:45:59;;;;;;;29.95;9.15;;;9.00;99.90;;;;;;5029694;28;20059;-85
2022/04/06 05:48:24;;;;;;;31.98;8.55;;;8.00;99.90;;;;;;5044237;28;20096;-85
2022/04/06 05:50:50;;;;;;;29.98;8.15;;;8.50;99.90;;;;;;5033171;28;20049;-85
2022/04/06 05:53:42;;;;;;;28.40;8.88;;;8.80;99.90;;;;;;5066216;28;20045;-85
2022/04/06 05:56:08;;;;;;;25.38;8.05;;;8.70;99.90;;;;;;5047907;28;20060;-85
2022/04/06 05:58:43;;;;;;;20.55;8.32;;;8.10;99.90;;;;;;5033317;28;20044;-85
2022/04/06 06:01:09;;;;;;;23.50;8.50;;;8.90;99.90;;;;;;5048642;28;20055;-85
2022/04/06 06:03:35;;;;;;;33.22;8.68;;;7.90;99.90;;;;;;5033995;28;20052;-84
2022/04/06 06:06:01;;;;;;;33.95;9.05;;;7.90;99.90;;;;;;5065177;28;20506;-84
2022/04/06 06:08:27;;;;;;;31.88;8.80;;;7.90;99.90;;;;;;5050356;28;20102;-84
2022/04/06 06:10:53;;;;;;;30.60;8.98;;;7.30;99.90;;;;;;5070374;28;20044;-84
2022/04/06 06:13:22;;;;;;;26.33;8.40;;;8.60;99.90;;;;;;5069508;28;20043;-84
2022/04/06 06:15:48;;;;;;;20.80;7.05;;;8.50;99.90;;;;;;5053114;28;20136;-84
2022/04/06 06:18:15;;;;;;;28.33;7.55;;;8.70;99.90;;;;;;5052850;28;20127;-84
2022/04/06 06:20:41;;;;;;;25.60;7.57;;;8.60;99.90;;;;;;5070015;28;20044;-84
2022/04/06 06:23:19;;;;;;;25.52;6.38;;;8.60;99.90;;;;;;5052709;28;20123;-84
2022/04/06 06:25:44;;;;;;;24.77;7.68;;;8.10;99.90;;;;;;5036320;28;20098;-84
2022/04/06 06:28:10;;;;;;;20.60;6.90;;;8.10;99.90;;;;;;5036528;28;20041;-84
2022/04/06 06:30:36;;;;;;;18.95;7.00;;;8.70;99.90;;;;;;5037039;28;20102;-84
2022/04/06 06:33:02;;;;;;;17.60;5.65;;;7.90;99.90;;;;;;5035930;28;20500;-84
2022/04/06 06:35:40;;;;;;;16.88;6.10;;;7.90;99.90;;;;;;5036578;28;20048;-86
2022/04/06 06:38:06;;;;;;;17.83;5.72;;;8.60;99.90;;;;;;5053783;28;20060;-86
2022/04/06 06:40:31;;;;;;;23.30;6.85;;;7.90;99.90;;;;;;5036581;28;20408;-86
2022/04/06 06:42:57;;;;;;;20.85;6.10;;;7.70;99.90;;;;;;5036681;28;20051;-85
2022/04/06 06:45:31;;;;;;;14.70;6.35;;;8.40;99.90;;;;;;5036184;28;20037;-87
2022/04/06 06:47:57;;;;;;;16.35;6.10;;;8.20;99.90;;;;;;5036096;28;20114;-86
2022/04/06 06:50:23;;;;;;;16.15;5.40;;;8.70;99.90;;;;;;5052562;28;20405;-86
2022/04/06 06:52:48;;;;;;;19.48;6.03;;;8.00;99.90;;;;;;5036683;28;20083;-87
2022/04/06 06:55:15;;;;;;;18.13;6.15;;;8.50;99.90;;;;;;5035652;28;20091;-86
2022/04/06 06:57:53;;;;;;;16.77;6.30;;;8.00;99.90;;;;;;5046974;28;20040;-86
2022/04/06 07:00:19;;;;;;;18.60;5.75;;;7.00;99.90;;;;;;5050969;28;20575;-86
2022/04/06 07:02:45;;;;;;;21.33;6.05;;;8.00;99.90;;;;;;5048989;28;20134;-85
2022/04/06 07:05:11;;;;;;;15.55;6.13;;;8.30;99.90;;;;;;5051704;28;20114;-85
2022/04/06 07:07:55;;;;;;;18.58;5.00;;;8.70;99.90;;;;;;5047788;28;20048;-85
2022/04/06 07:10:23;;;;;;;15.65;4.25;;;8.00;99.90;;;;;;5043106;28;20148;-85
2022/04/06 07:12:49;;;;;;;17.95;3.65;;;8.30;99.90;;;;;;5044841;28;20028;-85
2022/04/06 07:15:14;;;;;;;12.60;3.75;;;8.30;99.90;;;;;;5040360;28;20067;-85
2022/04/06 07:17:53;;;;;;;17.33;4.22;;;8.90;99.90;;;;;;5046382;28;20482;-85
2022/04/06 07:20:19;;;;;;;21.55;4.13;;;8.00;99.90;;;;;;5048230;28;20426;-85
2022/04/06 07:22:45;;;;;;;18.98;3.92;;;8.90;99.90;;;;;;5044884;28;20084;-86
2022/04/06 07:25:10;;;;;;;15.68;3.92;;;7.70;99.90;;;;;;5040901;28;20446;-85
2022/04/06 07:27:46;;;;;;;16.13;4.40;;;8.00;99.90;;;;;;5037511;28;20513;-86
2022/04/06 07:30:12;;;;;;;15.88;4.00;;;8.40;99.90;;;;;;5031723;28;20059;-86
2022/04/06 07:32:39;;;;;;;11.88;4.18;;;8.00;99.90;;;;;;5047882;28;20113;-87
2022/04/06 07:35:06;;;;;;;16.42;3.63;;;8.00;99.90;;;;;;5049138;28;20139;-86
2022/04/06 07:37:48;;;;;;;15.40;3.40;;;8.10;99.90;;;;;;5039045;28;20131;-87
2022/04/06 07:40:29;;;;;;;12.63;3.40;;;8.10;99.90;;;;;;5053439;28;20087;-88
2022/04/06 07:42:55;;;;;;;15.25;3.63;;;7.60;99.90;;;;;;5040492;28;20109;-86
2022/04/06 07:45:33;;;;;;;14.15;3.72;;;8.10;99.90;;;;;;5070917;28;20075;-86
2022/04/06 07:47:59;;;;;;;13.20;4.30;;;8.20;99.90;;;;;;5048312;28;20065;-87
2022/04/06 07:50:40;;;;;;;12.40;3.47;;;8.80;99.90;;;;;;5060650;28;20048;-87
2022/04/06 07:53:07;;;;;;;15.10;3.58;;;8.10;99.90;;;;;;5042453;28;20044;-86
2022/04/06 07:55:33;;;;;;;17.58;4.18;;;8.20;99.90;;;;;;5050682;28;20047;-86
2022/04/06 07:58:11;;;;;;;18.40;4.25;;;8.10;99.90;;;;;;5051975;28;20048;-85
2022/04/06 08:00:36;;;;;;;17.73;3.78;;;8.10;99.90;;;;;;5052458;28;20082;-85
2022/04/06 08:03:02;;;;;;;14.77;4.93;;;8.10;99.90;;;;;;5069049;28;20088;-85
2022/04/06 08:05:28;;;;;;;13.32;3.95;;;8.40;99.90;;;;;;5069344;28;20044;-85
2022/04/06 08:07:54;;;;;;;17.13;4.10;;;8.30;99.90;;;;;;5052354;28;20463;-85
2022/04/06 08:10:30;;;;;;;17.05;4.05;;;9.00;99.90;;;;;;5051656;28;20040;-85
2022/04/06 08:12:56;;;;;;;17.83;4.13;;;8.30;99.90;;;;;;5068689;28;20126;-85
2022/04/06 08:15:22;;;;;;;13.73;3.83;;;8.70;99.90;;;;;;5051602;28;20139;-86
2022/04/06 08:17:49;;;;;;;20.40;4.20;;;8.80;99.90;;;;;;5050280;28;20480;-84
2022/04/06 08:20:34;;;;;;;22.25;4.05;;;8.30;99.90;;;;;;5031250;28;20135;-84
2022/04/06 08:23:00;;;;;;;20.90;4.25;;;9.10;99.90;;;;;;5046861;28;20060;-85
2022/04/06 08:25:26;;;;;;;20.73;5.22;;;9.10;99.90;;;;;;5065272;28;20542;-85
2022/04/06 08:28:08;;;;;;;17.42;4.47;;;9.00;99.90;;;;;;5032161;28;20048;-86
2022/04/06 08:30:41;;;;;;;23.02;4.18;;;7.90;99.90;;;;;;5031169;28;20051;-86
2022/04/06 08:33:17;;;;;;;17.33;4.07;;;8.30;99.90;;;;;;5031193;28;20526;-86
2022/04/06 08:35:43;;;;;;;19.50;3.83;;;8.20;99.90;;;;;;5031683;28;20105;-85
2022/04/06 08:38:14;;;;;;;17.48;3.67;;;8.60;99.90;;;;;;5047675;28;20071;-86
2022/04/06 08:40:42;;;;;;;14.68;4.20;;;8.60;99.90;;;;;;5031223;28;20076;-84
2022/04/06 08:43:17;;;;;;;13.23;3.80;;;8.30;99.90;;;;;;5048031;28;20056;-85
2022/04/06 08:45:43;;;;;;;11.80;3.90;;;8.30;99.90;;;;;;5031321;28;20088;-85
2022/04/06 08:48:10;;;;;;;24.98;4.85;;;8.20;99.90;;;;;;5046583;28;20127;-84
2022/04/06 08:50:38;;;;;;;15.52;3.90;;;9.00;99.90;;;;;;5032545;28;20044;-86
2022/04/06 08:53:16;;;;;;;16.02;3.97;;;8.60;99.90;;;;;;5031635;28;20052;-85
2022/04/06 08:55:43;;;;;;;23.23;4.43;;;8.40;99.90;;;;;;5047295;28;20131;-85
2022/04/06 08:58:08;;;;;;;14.75;3.80;;;8.80;99.90;;;;;;5031749;28;20098;-85
2022/04/06 09:00:34;;;;;;;15.68;3.75;;;9.40;99.90;;;;;;5063816;28;20044;-85
2022/04/06 09:03:00;;;;;;;16.52;4.47;;;9.40;99.90;;;;;;5068479;22;20049;-85
2022/04/06 09:05:35;;;;;;;11.10;3.15;;;8.60;99.90;;;;;;5044657;28;20362;-84
2022/04/06 09:08:03;;;;;;;14.52;3.30;;;8.70;99.90;;;;;;5024115;28;20053;-85
2022/04/06 09:10:33;;;;;;;14.75;3.15;;;9.30;99.90;;;;;;5024607;28;20041;-85
2022/04/06 09:13:11;;;;;;;24.02;3.95;;;8.70;99.90;;;;;;5025515;28;20084;-85
2022/04/06 09:15:37;;;;;;;19.63;4.40;;;8.70;99.90;;;;;;5023202;28;20639;-85
2022/04/06 09:18:03;;;;;;;19.52;4.70;;;8.80;99.90;;;;;;5008448;28;20041;-84
2022/04/06 09:20:29;;;;;;;13.65;3.10;;;8.90;99.90;;;;;;5023829;28;20409;-84
2022/04/06 09:22:55;;;;;;;14.52;3.10;;;9.00;99.90;;;;;;5029790;28;20515;-84
2022/04/06 09:25:24;;;;;;;14.77;3.42;;;9.40;99.90;;;;;;5043353;28;20049;-83
2022/04/06 09:27:52;;;;;;;14.15;3.17;;;9.00;99.90;;;;;;5044256;28;20079;-84
2022/04/06 09:30:19;;;;;;;18.65;3.28;;;10.00;99.90;;;;;;5045427;28;20084;-84
2022/04/06 09:32:46;;;;;;;12.48;3.28;;;9.20;99.90;;;;;;5022766;28;20049;-84
2022/04/06 09:35:25;;;;;;;19.23;3.63;;;9.50;99.90;;;;;;5020343;28;20553;-84
2022/04/06 09:38:20;;;;;;;16.95;4.07;;;9.30;99.90;;;;;;5035899;28;20053;-84
2022/04/06 09:40:46;;;;;;;15.77;3.75;;;9.50;99.90;;;;;;5028900;28;20049;-83
2022/04/06 09:43:33;;;;;;;17.00;3.50;;;9.60;99.90;;;;;;5044293;28;20459;-85
2022/04/06 09:49:10;;;;;;;13.93;3.25;;;9.70;99.90;;;;;;5047520;28;20052;-85
2022/04/06 09:51:48;;;;;;;15.13;3.22;;;10.20;99.90;;;;;;5021458;28;20583;-85
2022/04/06 09:54:14;;;;;;;20.15;3.95;;;9.70;99.90;;;;;;5029702;28;20131;-84
2022/04/06 09:56:41;;;;;;;19.70;3.80;;;10.20;99.90;;;;;;5024065;28;20571;-85
2022/04/06 09:59:20;;;;;;;14.48;3.90;;;9.80;99.90;;;;;;5027981;28;20827;-85
2022/04/06 10:01:49;;;;;;;13.80;3.60;;;9.40;99.90;;;;;;5031189;28;20127;-86
2022/04/06 10:04:18;;;;;;;13.93;2.90;;;9.90;99.90;;;;;;5041259;28;20096;-86
2022/04/06 10:07:06;;;;;;;17.30;3.35;;;9.90;99.90;;;;;;5012890;28;20061;-89
2022/04/06 10:09:32;;;;;;;14.05;3.45;;;9.80;99.90;;;;;;5014865;28;20500;-89
2022/04/06 10:11:58;;;;;;;15.27;3.20;;;9.80;99.90;;;;;;5015082;28;20371;-88
2022/04/06 10:14:25;;;;;;;19.95;3.50;;;9.90;99.90;;;;;;5046364;28;20107;-87
2022/04/06 10:16:57;;;;;;;17.02;5.03;;;9.90;99.90;;;;;;5014345;28;20037;-86
2022/04/06 10:19:32;;;;;;;14.80;4.20;;;9.70;99.90;;;;;;5029162;28;20123;-87
2022/04/06 10:25:17;;;;;;;14.68;3.83;;;9.70;99.90;;;;;;5162258;22;20408;-90
2022/04/06 10:27:51;;;;;;;19.10;4.30;;;10.40;99.90;;;;;;5060177;28;20041;-87
2022/04/06 10:30:22;;;;;;;18.38;4.00;;;9.60;99.90;;;;;;5039854;22;20092;-87
2022/04/06 10:32:57;;;;;;;18.75;4.13;;;9.60;99.90;;;;;;5030141;28;20079;-87
2022/04/06 10:35:26;;;;;;;16.88;3.67;;;9.60;99.90;;;;;;5030645;28;20037;-87
2022/04/06 10:38:14;;;;;;;18.63;3.83;;;9.60;99.90;;;;;;5031370;28;20041;-88
2022/04/06 10:40:46;;;;;;;19.33;4.07;;;9.60;99.90;;;;;;5030090;28;20040;-87
2022/04/06 10:43:35;;;;;;;22.73;4.60;;;9.60;99.90;;;;;;5030146;28;20137;-87
2022/04/06 10:46:02;;;;;;;20.15;3.97;;;9.60;99.90;;;;;;5028541;28;20496;-87
2022/04/06 10:48:28;;;;;;;18.52;4.25;;;9.80;99.90;;;;;;5030946;28;20152;-88
2022/04/06 10:51:35;;;;;;;23.50;4.07;;;9.60;99.90;;;;;;5030137;28;20131;-88
2022/04/06 10:54:21;;;;;;;25.85;4.47;;;9.60;99.90;;;;;;5021657;28;20045;-84
2022/04/06 10:56:50;;;;;;;20.17;4.60;;;10.00;99.90;;;;;;5048540;28;20045;-84
2022/04/06 10:59:19;;;;;;;23.25;4.80;;;10.00;99.90;;;;;;5032015;28;20488;-84
2022/04/06 11:01:48;;;;;;;21.48;4.70;;;10.30;99.90;;;;;;5032460;28;20037;-86
2022/04/06 11:04:36;;;;;;;25.70;4.70;;;10.40;99.90;;;;;;5032734;28;20045;-86
2022/04/06 11:07:03;;;;;;;19.75;5.15;;;9.90;99.90;;;;;;5031191;28;20131;-86
2022/04/06 11:12:24;;;;;;;21.75;6.03;;;9.60;99.90;;;;;;5036805;28;20091;-85
2022/04/06 11:14:55;;;;;;;24.92;5.05;;;9.80;99.90;;;;;;5031711;28;20423;-86
2022/04/06 11:17:37;;;;;;;26.95;5.40;;;9.80;99.90;;;;;;5033553;28;20120;-86
2022/04/06 11:20:14;;;;;;;27.23;5.35;;;10.50;99.90;;;;;;5032753;28;20045;-86
2022/04/06 11:22:43;;;;;;;36.50;6.05;;;9.80;99.90;;;;;;5049301;28;20114;-86
2022/04/06 11:25:20;;;;;;;26.58;5.40;;;9.80;99.90;;;;;;5049378;28;20052;-86
2022/04/06 11:27:55;;;;;;;29.95;4.88;;;9.70;99.90;;;;;;5032990;28;20507;-86
2022/04/06 11:30:26;;;;;;;29.00;5.40;;;9.50;99.90;;;;;;5050917;28;20067;-86
2022/04/06 11:33:01;;;;;;;18.70;4.82;;;10.40;99.90;;;;;;5035932;28;20044;-86
2022/04/06 11:35:29;;;;;;;22.27;5.35;;;9.80;99.90;;;;;;5035552;28;20052;-86
2022/04/06 11:37:55;;;;;;;23.52;4.63;;;10.90;99.90;;;;;;5035988;28;20048;-85
2022/04/06 11:40:22;;;;;;;31.38;6.53;;;11.10;99.90;;;;;;5035411;28;20067;-88
2022/04/06 11:42:49;;;;;;;24.20;5.30;;;10.60;99.90;;;;;;5034925;28;20040;-86
2022/04/06 11:45:29;;;;;;;22.48;4.32;;;10.70;99.90;;;;;;5035125;28;20048;-87
2022/04/06 11:47:57;;;;;;;20.48;4.53;;;11.10;99.90;;;;;;5033351;28;20037;-86
2022/04/06 11:50:38;;;;;;;17.33;4.80;;;11.00;99.90;;;;;;5030077;28;20048;-87
2022/04/06 11:53:21;;;;;;;23.35;4.63;;;11.10;99.90;;;;;;5035799;28;20058;-87
2022/04/06 11:55:49;;;;;;;23.42;4.32;;;11.10;99.90;;;;;;5033577;28;20037;-86
2022/04/06 11:58:34;;;;;;;24.75;4.72;;;11.30;99.90;;;;;;5035469;28;20040;-86
2022/04/06 12:01:06;;;;;;;24.27;4.97;;;11.60;99.90;;;;;;5035277;28;20048;-87
2022/04/06 12:03:33;;;;;;;24.80;4.38;;;12.00;99.90;;;;;;5034664;28;20442;-86
2022/04/06 12:06:00;;;;;;;20.02;4.18;;;12.30;99.90;;;;;;5035362;28;20507;-87
2022/04/06 12:08:27;;;;;;;18.52;3.30;;;12.80;99.90;;;;;;5052050;28;20056;-86
2022/04/06 12:10:59;;;;;;;19.50;3.85;;;12.50;99.90;;;;;;5035215;28;20040;-87
2022/04/06 12:13:28;;;;;;;17.33;4.63;;;12.60;99.90;;;;;;5035100;28;20040;-86
2022/04/06 12:16:08;;;;;;;17.73;3.22;;;12.70;99.90;;;;;;5035420;28;20056;-87
2022/04/06 12:18:37;;;;;;;13.98;2.80;;;12.80;99.90;;;;;;5035741;28;20041;-87
2022/04/06 12:21:03;;;;;;;15.07;2.92;;;12.90;99.90;;;;;;5034587;28;20090;-87
2022/04/06 12:23:44;;;;;;;23.17;3.78;;;13.40;99.90;;;;;;5035566;28;20056;-86
2022/04/06 12:26:11;;;;;;;20.05;4.13;;;12.40;99.90;;;;;;5034449;28;20039;-86
2022/04/06 12:28:36;;;;;;;20.42;2.97;;;12.30;99.90;;;;;;5051569;28;20041;-86
2022/04/06 12:31:03;;;;;;;16.60;2.90;;;12.20;99.90;;;;;;5050367;28;20040;-86
2022/04/06 12:33:50;;;;;;;21.08;4.28;;;12.60;99.90;;;;;;5034459;28;20048;-87
2022/04/06 12:36:32;;;;;;;21.95;3.28;;;12.10;99.90;;;;;;5035151;28;20396;-84
2022/04/06 12:39:13;;;;;;;13.07;2.90;;;11.70;99.90;;;;;;5031107;28;20045;-84
2022/04/06 12:41:52;;;;;;;17.65;2.90;;;11.90;99.90;;;;;;5035117;28;20504;-83
2022/04/06 12:44:30;;;;;;;14.85;2.47;;;12.10;99.90;;;;;;5031343;28;20488;-84
2022/04/06 12:46:57;;;;;;;15.40;3.22;;;12.20;99.90;;;;;;5029670;28;20159;-83
2022/04/06 12:49:36;;;;;;;17.70;3.10;;;12.20;99.90;;;;;;5053644;28;20084;-84
2022/04/06 12:52:05;;;;;;;14.57;2.95;;;12.00;99.90;;;;;;5034699;28;20192;-84
2022/04/06 12:54:40;;;;;;;14.48;2.92;;;11.90;99.90;;;;;;5042585;28;20040;-84
2022/04/06 12:57:16;;;;;;;17.25;3.13;;;12.50;99.90;;;;;;5049830;28;20032;-83
2022/04/06 12:59:53;;;;;;;12.55;2.42;;;11.60;99.90;;;;;;5047669;28;20538;-84
2022/04/06 13:02:37;;;;;;;10.38;2.35;;;11.60;99.90;;;;;;5033107;28;20438;-83
2022/04/06 13:05:06;;;;;;;16.48;2.65;;;11.60;99.90;;;;;;5048528;28;20047;-85
2022/04/06 13:07:42;;;;;;;18.88;3.10;;;11.70;99.90;;;;;;5031580;28;20045;-84
2022/04/06 13:10:11;;;;;;;12.50;3.15;;;11.70;99.90;;;;;;5047030;28;20118;-83
2022/04/06 13:12:39;;;;;;;13.93;2.50;;;11.60;99.90;;;;;;5050541;28;20115;-84